createdAt,value
2022-11-17T00:04:25.375Z,62.41
2022-11-17T00:07:11.800Z,62.17
2022-11-17T00:09:57.588Z,62.67
2022-11-17T00:13:02.474Z,62.56
2022-11-17T00:15:48.709Z,62.24
2022-11-17T00:18:53.073Z,62.83
2022-11-17T00:21:44.536Z,62.54
2022-11-17T00:24:31.270Z,62.69
2022-11-17T00:27:19.072Z,62.54
2022-11-17T00:30:06.165Z,62.83
2022-11-17T00:33:11.747Z,62.66
2022-11-17T00:35:57.598Z,62.90
2022-11-17T00:38:43.193Z,62.71
2022-11-17T00:41:29.157Z,62.93
2022-11-17T00:44:15.294Z,63.13
2022-11-17T00:47:01.417Z,63.10
2022-11-17T00:49:47.175Z,62.87
2022-11-17T00:52:33.239Z,63.21
2022-11-17T00:55:19.324Z,62.99
2022-11-17T00:58:05.264Z,63.00
2022-11-17T01:00:51.143Z,63.28
2022-11-17T01:03:37.415Z,62.96
2022-11-17T01:06:23.576Z,63.34
2022-11-17T01:09:27.426Z,63.39
2022-11-17T01:12:13.112Z,63.09
2022-11-17T01:14:58.721Z,63.25
2022-11-17T01:17:44.624Z,63.52
2022-11-17T01:20:30.387Z,63.36
2022-11-17T01:23:16.490Z,63.46
2022-11-17T01:26:19.727Z,63.60
2022-11-17T01:29:06.786Z,63.50
2022-11-17T01:31:52.677Z,63.52
2022-11-17T01:34:38.899Z,63.79
2022-11-17T01:37:24.857Z,63.73
2022-11-17T01:40:13.159Z,63.66
2022-11-17T01:42:59.599Z,63.78
2022-11-17T01:45:45.901Z,63.77
2022-11-17T01:48:31.791Z,64.19
2022-11-17T01:51:17.975Z,64.00
2022-11-17T01:54:03.908Z,64.00
2022-11-17T01:56:52.162Z,63.98
2022-11-17T01:59:37.905Z,64.05
2022-11-17T02:02:23.866Z,64.35
2022-11-17T02:05:17.100Z,64.40
2022-11-17T02:08:05.318Z,64.39
2022-11-17T02:10:52.136Z,63.96
2022-11-17T02:13:38.777Z,64.22
2022-11-17T02:16:24.848Z,64.21
2022-11-17T02:19:12.151Z,64.21
2022-11-17T02:22:20.222Z,64.54
2022-11-17T02:25:43.262Z,64.55
2022-11-17T02:28:35.049Z,64.55
2022-11-17T02:31:52.262Z,64.86
2022-11-17T02:34:54.279Z,64.76
2022-11-17T02:37:59.206Z,64.74
2022-11-17T02:40:50.201Z,64.88
2022-11-17T02:44:04.513Z,65.19
2022-11-17T02:47:02.551Z,64.86
2022-11-17T02:50:02.317Z,65.16
2022-11-17T02:52:48.435Z,65.04
2022-11-17T02:55:37.963Z,65.24
2022-11-17T02:58:23.900Z,65.39
2022-11-17T03:01:33.455Z,65.43
2022-11-17T03:04:22.151Z,65.00
2022-11-17T03:07:14.833Z,65.11
2022-11-17T03:10:22.466Z,65.13
2022-11-17T03:13:46.689Z,65.29
2022-11-17T03:16:36.453Z,65.08
2022-11-17T03:19:31.976Z,65.33
2022-11-17T03:22:24.372Z,65.44
2022-11-17T03:25:15.263Z,65.41
2022-11-17T03:28:05.859Z,65.43
2022-11-17T03:30:52.947Z,65.39
2022-11-17T03:33:40.815Z,65.41
2022-11-17T03:36:31.193Z,65.53
2022-11-17T03:39:23.707Z,65.19
2022-11-17T03:42:30.954Z,65.26
2022-11-17T03:45:23.077Z,65.50
2022-11-17T03:48:14.524Z,65.27
2022-11-17T03:51:22.126Z,65.61
2022-11-17T03:54:09.634Z,65.72
2022-11-17T03:57:01.531Z,65.50
2022-11-17T04:00:06.948Z,65.82
2022-11-17T04:02:59.575Z,65.52
2022-11-17T04:05:45.853Z,65.68
2022-11-17T04:08:32.020Z,65.50
2022-11-17T04:11:36.276Z,65.47
2022-11-17T04:14:40.932Z,65.17
2022-11-17T04:17:27.218Z,65.14
2022-11-17T04:20:13.201Z,65.07
2022-11-17T04:23:08.387Z,64.59
2022-11-17T04:26:14.618Z,64.83
2022-11-17T04:29:00.422Z,64.85
2022-11-17T04:31:46.274Z,64.59
2022-11-17T04:34:31.949Z,64.44
2022-11-17T04:37:17.698Z,64.41
2022-11-17T04:40:03.956Z,64.17
2022-11-17T04:42:49.619Z,64.43
2022-11-17T04:45:35.361Z,64.48
2022-11-17T04:48:21.021Z,64.38
2022-11-17T04:51:06.749Z,64.11
2022-11-17T04:53:52.730Z,63.98
2022-11-17T04:56:38.998Z,64.25
2022-11-17T04:59:25.393Z,64.27
2022-11-17T05:02:11.201Z,64.21
2022-11-17T05:04:56.974Z,64.31
2022-11-17T05:07:43.167Z,64.55
2022-11-17T05:10:47.513Z,64.54
2022-11-17T05:13:33.852Z,64.26
2022-11-17T05:16:39.252Z,64.31
2022-11-17T05:19:27.072Z,64.31
2022-11-17T05:22:36.621Z,64.22
2022-11-17T05:25:22.625Z,64.47
2022-11-17T05:28:08.256Z,64.21
2022-11-17T05:30:53.980Z,64.54
2022-11-17T05:33:40.757Z,64.58
2022-11-17T05:36:27.746Z,64.64
2022-11-17T05:39:16.054Z,64.60
2022-11-17T05:42:02.023Z,64.58
2022-11-17T05:44:50.342Z,64.75
2022-11-17T05:47:36.312Z,64.45
2022-11-17T05:50:22.017Z,64.37
2022-11-17T05:53:07.802Z,64.43
2022-11-17T05:56:08.181Z,64.34
2022-11-17T05:59:08.194Z,64.58
2022-11-17T06:02:00.692Z,64.93
2022-11-17T06:04:49.383Z,64.56
2022-11-17T06:07:36.833Z,64.75
2022-11-17T06:10:23.308Z,64.78
2022-11-17T06:13:09.107Z,64.76
2022-11-17T06:16:02.699Z,64.66
2022-11-17T06:18:54.303Z,64.69
2022-11-17T06:22:09.895Z,64.61
2022-11-17T06:24:46.858Z,64.84
2022-11-17T06:27:33.320Z,64.62
2022-11-17T06:30:19.371Z,64.56
2022-11-17T06:33:07.732Z,64.94
2022-11-17T06:35:53.469Z,64.91
2022-11-17T06:38:40.776Z,65.14
2022-11-17T06:41:26.908Z,65.16
2022-11-17T06:44:12.746Z,65.11
2022-11-17T06:46:58.541Z,65.19
2022-11-17T06:49:44.649Z,65.08
2022-11-17T06:52:30.463Z,65.10
2022-11-17T06:55:16.289Z,64.88
2022-11-17T06:58:06.982Z,64.86
2022-11-17T07:00:53.202Z,64.77
2022-11-17T07:03:40.932Z,64.57
2022-11-17T07:06:27.049Z,64.44
2022-11-17T07:09:12.641Z,64.61
2022-11-17T07:11:58.429Z,64.31
2022-11-17T07:14:44.936Z,64.54
2022-11-17T07:17:32.124Z,64.51
2022-11-17T07:20:18.577Z,64.63
2022-11-17T07:23:04.500Z,64.80
2022-11-17T07:25:52.942Z,64.51
2022-11-17T07:28:39.023Z,64.37
2022-11-17T07:31:25.027Z,64.33
2022-11-17T07:34:11.047Z,64.39
2022-11-17T07:36:56.785Z,64.23
2022-11-17T07:39:42.477Z,64.39
2022-11-17T07:42:28.112Z,64.08
2022-11-17T07:45:14.027Z,64.31
2022-11-17T07:48:01.828Z,64.18
2022-11-17T07:50:47.512Z,63.85
2022-11-17T07:53:35.208Z,63.96
2022-11-17T07:56:20.898Z,64.09
2022-11-17T07:59:06.888Z,64.06
2022-11-17T08:01:53.006Z,63.80
2022-11-17T08:04:39.185Z,63.67
2022-11-17T08:07:24.984Z,63.75
2022-11-17T08:10:11.375Z,63.91
2022-11-17T08:12:58.381Z,63.69
2022-11-17T08:15:44.375Z,63.48
2022-11-17T08:18:30.863Z,63.56
2022-11-17T08:21:16.971Z,63.49
2022-11-17T08:24:06.263Z,63.30
2022-11-17T08:26:55.454Z,63.53
2022-11-17T08:29:41.118Z,63.71
2022-11-17T08:32:26.809Z,63.78
2022-11-17T08:35:12.745Z,63.40
2022-11-17T08:37:58.735Z,63.75
2022-11-17T08:40:46.054Z,63.32
2022-11-17T08:43:32.167Z,63.42
2022-11-17T08:46:18.112Z,63.44
2022-11-17T08:49:04.248Z,63.62
2022-11-17T08:51:49.990Z,63.32
2022-11-17T08:54:35.754Z,63.36
2022-11-17T08:57:22.447Z,63.09
2022-11-17T09:00:08.857Z,63.08
2022-11-17T09:02:54.808Z,63.02
2022-11-17T09:05:45.215Z,62.74
2022-11-17T09:08:45.439Z,62.50
2022-11-17T09:11:37.735Z,62.61
2022-11-17T09:14:23.426Z,62.26
2022-11-17T09:17:09.411Z,62.04
2022-11-17T09:19:55.092Z,61.86
2022-11-17T09:22:40.738Z,62.10
2022-11-17T09:25:26.626Z,61.78
2022-11-17T09:28:12.213Z,61.86
2022-11-17T09:31:00.390Z,62.49
2022-11-17T09:33:47.494Z,62.18
2022-11-17T09:36:33.928Z,61.71
2022-11-17T09:39:19.771Z,61.64
2022-11-17T09:42:05.844Z,61.37
2022-11-17T09:45:04.716Z,61.60
2022-11-17T09:48:12.628Z,61.33
2022-11-17T09:51:08.657Z,61.01
2022-11-17T09:53:58.006Z,60.78
2022-11-17T09:56:46.178Z,61.00
2022-11-17T09:59:32.535Z,61.03
2022-11-17T10:02:18.117Z,60.52
2022-11-17T10:05:03.896Z,60.48
2022-11-17T10:07:51.805Z,59.59
2022-11-17T10:10:44.840Z,59.08
2022-11-17T10:13:33.345Z,58.84
2022-11-17T10:16:19.735Z,58.64
2022-11-17T10:19:22.475Z,58.32
2022-11-17T10:22:09.257Z,58.69
2022-11-17T10:24:55.579Z,58.55
2022-11-17T10:27:44.126Z,57.98
2022-11-17T10:30:30.309Z,58.05
2022-11-17T10:33:18.793Z,57.95
2022-11-17T10:36:08.130Z,58.00
2022-11-17T10:38:55.601Z,57.95
2022-11-17T10:41:43.146Z,58.07
2022-11-17T10:44:30.680Z,58.23
2022-11-17T10:47:37.670Z,57.57
2022-11-17T10:50:28.377Z,58.02
2022-11-17T10:53:46.313Z,56.70
2022-11-17T10:56:44.722Z,57.41
2022-11-17T10:59:32.696Z,57.32
2022-11-17T11:02:31.034Z,56.53
2022-11-17T11:05:18.748Z,56.25
2022-11-17T11:08:17.138Z,55.97
2022-11-17T11:11:09.165Z,55.75
2022-11-17T11:14:45.263Z,55.13
2022-11-17T11:17:34.387Z,54.92
2022-11-17T11:20:27.055Z,53.90
2022-11-17T11:23:38.046Z,52.97
2022-11-17T11:26:45.903Z,54.40
2022-11-17T11:29:53.102Z,54.20
2022-11-17T11:32:54.909Z,54.02
2022-11-17T11:36:01.600Z,53.49
2022-11-17T11:38:58.960Z,53.63
2022-11-17T11:42:08.241Z,53.46
2022-11-17T11:45:10.484Z,53.56
2022-11-17T11:47:56.447Z,53.20
2022-11-17T11:50:51.278Z,53.01
2022-11-17T11:53:49.247Z,52.54
2022-11-17T11:56:46.217Z,52.35
2022-11-17T11:59:49.384Z,52.51
2022-11-17T12:02:56.103Z,52.25
2022-11-17T12:05:59.806Z,52.43
2022-11-17T12:08:51.791Z,52.25
2022-11-17T12:12:00.407Z,52.08
2022-11-17T12:15:29.068Z,50.60
2022-11-17T12:18:18.088Z,51.76
2022-11-17T12:21:11.964Z,51.83
2022-11-17T12:24:03.917Z,51.39
2022-11-17T12:26:49.770Z,51.57
2022-11-17T12:29:47.191Z,50.79
2022-11-17T12:32:45.099Z,51.80
2022-11-17T12:35:35.822Z,51.93
2022-11-17T12:38:21.701Z,51.76
2022-11-17T12:41:07.650Z,51.45
2022-11-17T12:43:53.553Z,51.06
2022-11-17T12:46:39.611Z,50.86
2022-11-17T12:49:35.540Z,50.20
2022-11-17T12:52:33.230Z,49.81
2022-11-17T12:55:24.965Z,49.58
2022-11-17T12:58:37.934Z,49.06
2022-11-17T13:01:44.982Z,48.61
2022-11-17T13:04:49.609Z,48.63
2022-11-17T13:07:36.060Z,49.44
2022-11-17T13:10:30.206Z,49.06
2022-11-17T13:13:23.711Z,49.13
2022-11-17T13:16:17.368Z,49.42
2022-11-17T13:19:03.997Z,49.39
2022-11-17T13:21:49.773Z,49.52
2022-11-17T13:24:37.513Z,49.48
2022-11-17T13:27:28.808Z,49.07
2022-11-17T13:30:29.293Z,48.98
2022-11-17T13:33:20.413Z,49.48
2022-11-17T13:36:24.983Z,49.55
2022-11-17T13:39:17.184Z,49.81
2022-11-17T13:42:04.244Z,50.10
2022-11-17T13:44:50.163Z,50.25
2022-11-17T13:47:36.144Z,50.36
2022-11-17T13:50:21.942Z,50.57
2022-11-17T13:53:10.729Z,50.61
2022-11-17T13:55:56.494Z,50.83
2022-11-17T13:58:42.444Z,50.93
2022-11-17T14:01:31.141Z,51.19
2022-11-17T14:04:23.547Z,51.16
2022-11-17T14:07:10.884Z,51.25
2022-11-17T14:10:21.273Z,51.25
2022-11-17T14:13:15.499Z,51.42
2022-11-17T14:16:01.439Z,51.59
2022-11-17T14:18:57.983Z,51.55
2022-11-17T14:22:24.959Z,51.56
2022-11-17T14:25:18.426Z,51.95
2022-11-17T14:28:04.255Z,51.89
2022-11-17T14:30:51.409Z,52.11
2022-11-17T14:33:37.254Z,52.16
2022-11-17T14:36:23.346Z,52.33
2022-11-17T14:39:18.575Z,52.30
2022-11-17T14:42:05.782Z,52.34
2022-11-17T14:44:51.435Z,52.65
2022-11-17T14:47:37.295Z,52.28
2022-11-17T14:50:23.411Z,52.75
2022-11-17T14:53:09.450Z,52.81
2022-11-17T14:55:55.584Z,52.90
2022-11-17T14:58:41.772Z,53.36
2022-11-17T15:01:31.208Z,53.32
2022-11-17T15:07:24.439Z,53.69
2022-11-17T15:10:10.950Z,53.77
2022-11-17T15:12:56.793Z,54.11
2022-11-17T15:15:42.712Z,54.38
2022-11-17T15:18:29.077Z,54.29
2022-11-17T15:21:16.800Z,54.57
2022-11-17T15:24:04.178Z,54.67
2022-11-17T15:26:50.586Z,54.76
2022-11-17T15:29:36.877Z,55.02
2022-11-17T15:32:22.717Z,55.25
2022-11-17T15:35:08.912Z,55.19
2022-11-17T15:37:54.826Z,55.27
2022-11-17T15:40:41.006Z,55.58
2022-11-17T15:43:31.505Z,56.18
2022-11-17T15:46:18.871Z,56.10
2022-11-17T15:49:04.607Z,55.84
2022-11-17T15:51:50.743Z,56.01
2022-11-17T15:54:36.840Z,55.97
2022-11-17T15:57:23.109Z,56.29
2022-11-17T16:00:10.063Z,56.51
2022-11-17T16:02:58.780Z,56.59
2022-11-17T16:05:45.296Z,56.79
2022-11-17T16:08:31.894Z,56.52
2022-11-17T16:11:18.066Z,56.73
2022-11-17T16:14:06.115Z,56.99
2022-11-17T16:16:52.098Z,57.06
2022-11-17T16:19:38.209Z,56.85
2022-11-17T16:22:24.186Z,57.12
2022-11-17T16:25:10.548Z,57.17
2022-11-17T16:27:56.646Z,57.19
2022-11-17T16:30:42.973Z,57.29
2022-11-17T16:33:28.944Z,57.36
2022-11-17T16:36:15.564Z,57.50
2022-11-17T16:39:02.437Z,57.55
2022-11-17T16:41:50.773Z,57.69
2022-11-17T16:44:36.707Z,57.86
2022-11-17T16:47:22.960Z,57.50
2022-11-17T16:50:09.666Z,58.16
2022-11-17T16:52:55.759Z,58.06
2022-11-17T16:55:41.802Z,58.14
2022-11-17T16:58:27.730Z,57.65
2022-11-17T17:01:15.488Z,57.54
2022-11-17T17:04:04.458Z,58.00
2022-11-17T17:06:50.460Z,58.01
2022-11-17T17:09:37.862Z,58.38
2022-11-17T17:12:23.774Z,58.38
2022-11-17T17:15:10.281Z,58.43
2022-11-17T17:17:56.293Z,58.60
2022-11-17T17:20:50.562Z,58.40
2022-11-17T17:23:36.615Z,58.70
2022-11-17T17:26:24.174Z,58.40
2022-11-17T17:29:11.107Z,58.72
2022-11-17T17:31:57.096Z,58.97
2022-11-17T17:34:43.221Z,58.54
2022-11-17T17:37:32.251Z,59.03
2022-11-17T17:40:18.129Z,59.02
2022-11-17T17:43:04.249Z,58.71
2022-11-17T17:45:50.466Z,58.69
2022-11-17T17:48:39.408Z,58.67
2022-11-17T17:51:27.146Z,58.73
2022-11-17T17:54:16.945Z,58.89
2022-11-17T17:57:02.763Z,58.73
2022-11-17T17:59:48.604Z,58.74
2022-11-17T18:02:35.070Z,58.91
2022-11-17T18:05:22.630Z,58.81
2022-11-17T18:08:08.607Z,58.66
2022-11-17T18:10:54.386Z,58.96
2022-11-17T18:13:42.515Z,59.06
2022-11-17T18:16:31.330Z,58.76
2022-11-17T18:19:18.315Z,59.23
2022-11-17T18:22:05.818Z,59.40
2022-11-17T18:24:55.948Z,59.35
2022-11-17T18:27:46.327Z,59.08
2022-11-17T18:30:32.855Z,59.10
2022-11-17T18:33:19.035Z,59.28
2022-11-17T18:36:07.715Z,59.57
2022-11-17T18:38:54.246Z,59.65
2022-11-17T18:41:40.240Z,59.33
2022-11-17T18:44:26.531Z,59.24
2022-11-17T18:47:13.709Z,59.46
2022-11-17T18:49:59.845Z,59.42
2022-11-17T18:52:45.562Z,59.66
2022-11-17T18:55:31.388Z,59.49
2022-11-17T18:58:17.042Z,59.75
2022-11-17T19:01:08.430Z,59.48
2022-11-17T19:03:56.016Z,59.71
2022-11-17T19:06:42.183Z,59.58
2022-11-17T19:09:28.330Z,59.40
2022-11-17T19:12:14.859Z,59.84
2022-11-17T19:15:01.142Z,59.58
2022-11-17T19:17:47.097Z,59.94
2022-11-17T19:20:33.178Z,59.67
2022-11-17T19:23:20.514Z,59.93
2022-11-17T19:26:14.623Z,59.92
2022-11-17T19:29:06.414Z,59.72
2022-11-17T19:31:54.870Z,59.83
2022-11-17T19:34:41.906Z,59.79
2022-11-17T19:37:27.847Z,60.06
2022-11-17T19:40:13.839Z,60.04
2022-11-17T19:42:59.994Z,60.08
2022-11-17T19:45:46.061Z,60.06
2022-11-17T19:48:32.473Z,60.07
2022-11-17T19:51:21.402Z,60.14
2022-11-17T19:54:14.313Z,60.16
2022-11-17T19:57:00.373Z,59.94
2022-11-17T19:59:46.339Z,60.35
2022-11-17T20:02:32.529Z,60.11
2022-11-17T20:05:18.093Z,60.30
2022-11-17T20:08:04.335Z,60.38
2022-11-17T20:10:50.345Z,60.23
2022-11-17T20:13:37.614Z,60.14
2022-11-17T20:16:27.731Z,60.45
2022-11-17T20:19:14.216Z,60.15
2022-11-17T20:22:00.519Z,60.38
2022-11-17T20:24:46.531Z,60.21
2022-11-17T20:27:32.868Z,60.18
2022-11-17T20:30:19.271Z,60.16
2022-11-17T20:33:05.571Z,60.21
2022-11-17T20:35:51.702Z,60.57
2022-11-17T20:38:37.761Z,60.43
2022-11-17T20:41:24.316Z,60.59
2022-11-17T20:44:24.041Z,60.52
2022-11-17T20:47:12.882Z,60.58
2022-11-17T20:49:58.768Z,60.34
2022-11-17T20:52:44.953Z,60.33
2022-11-17T20:55:31.044Z,60.49
2022-11-17T20:58:16.709Z,60.44
2022-11-17T21:01:11.879Z,60.67
2022-11-17T21:03:58.054Z,60.54
2022-11-17T21:06:44.261Z,60.48
2022-11-17T21:09:30.288Z,60.70
2022-11-17T21:12:16.168Z,60.50
2022-11-17T21:15:02.299Z,60.39
2022-11-17T21:18:06.627Z,60.74
2022-11-17T21:20:56.127Z,60.39
2022-11-17T21:23:44.360Z,60.61
2022-11-17T21:26:31.227Z,60.37
2022-11-17T21:29:17.611Z,61.00
2022-11-17T21:32:03.952Z,60.78
2022-11-17T21:34:50.501Z,60.56
2022-11-17T21:37:36.446Z,60.62
2022-11-17T21:40:23.461Z,60.94
2022-11-17T21:43:09.319Z,61.20
2022-11-17T21:45:55.151Z,61.03
2022-11-17T21:48:41.258Z,61.37
2022-11-17T21:51:35.122Z,61.04
2022-11-17T21:54:22.321Z,60.86
2022-11-17T21:57:09.260Z,61.15
2022-11-17T21:59:54.950Z,61.18
2022-11-17T22:02:40.658Z,61.04
2022-11-17T22:05:26.454Z,61.00
2022-11-17T22:08:12.537Z,60.96
2022-11-17T22:11:03.306Z,60.86
2022-11-17T22:13:49.212Z,60.74
2022-11-17T22:16:40.335Z,60.93
2022-11-17T22:19:28.028Z,61.22
2022-11-17T22:22:15.289Z,60.77
2022-11-17T22:25:22.726Z,61.15
2022-11-17T22:28:09.377Z,60.79
2022-11-17T22:30:55.617Z,61.06
2022-11-17T22:33:45.951Z,61.24
2022-11-17T22:36:32.374Z,61.60
2022-11-17T22:39:18.594Z,60.98
2022-11-17T22:42:05.093Z,61.18
2022-11-17T22:44:51.297Z,61.13
2022-11-17T22:47:40.105Z,60.98
2022-11-17T22:50:26.220Z,61.21
2022-11-17T22:53:12.243Z,61.49
2022-11-17T22:56:10.477Z,61.00
2022-11-17T22:58:59.607Z,61.17
2022-11-17T23:01:45.702Z,60.82
2022-11-17T23:04:31.845Z,61.00
2022-11-17T23:07:17.749Z,60.75
2022-11-17T23:10:04.062Z,61.36
2022-11-17T23:12:50.857Z,61.27
2022-11-17T23:15:38.981Z,61.48
2022-11-17T23:18:25.715Z,61.34
2022-11-17T23:21:12.036Z,61.57
2022-11-17T23:23:58.115Z,61.23
2022-11-17T23:26:44.189Z,61.81
2022-11-17T23:29:30.206Z,61.17
2022-11-17T23:32:16.414Z,61.22
2022-11-17T23:35:02.098Z,60.89
2022-11-17T23:37:48.331Z,60.69
2022-11-17T23:40:34.383Z,61.36
2022-11-17T23:43:20.619Z,60.95
2022-11-17T23:46:09.749Z,61.52
2022-11-17T23:48:59.151Z,61.14
2022-11-17T23:51:45.067Z,60.75
2022-11-17T23:54:30.983Z,60.57
2022-11-17T23:57:17.204Z,60.74
